sensor_id;sensor_type;location;lat;lon;timestamp;pressure;altitude;pressure_sealevel;temperature;humidity
6134;BME280;3098;42.678;23.364;2023-06-10T00:01:46;94558.50;;;17.52;100.00
6134;BME280;3098;42.678;23.364;2023-06-10T00:04:15;94560.38;;;17.52;100.00
6134;BME280;3098;42.678;23.364;2023-06-10T00:06:42;94559.44;;;17.41;100.00
6134;BME280;3098;42.678;23.364;2023-06-10T00:09:09;94555.47;;;17.31;100.00
6134;BME280;3098;42.678;23.364;2023-06-10T00:11:37;94440.97;;;16.41;100.00
6134;BME280;3098;42.678;23.364;2023-06-10T00:14:04;94519.53;;;16.90;100.00
6134;BME280;3098;42.678;23.364;2023-06-10T00:16:32;94562.78;;;17.11;100.00
6134;BME280;3098;42.678;23.364;2023-06-10T00:18:59;94499.22;;;16.66;100.00
6134;BME280;3098;42.678;23.364;2023-06-10T00:21:28;94560.22;;;16.96;100.00
6134;BME280;3098;42.678;23.364;2023-06-10T00:23:55;94549.84;;;16.94;100.00
6134;BME280;3098;42.678;23.364;2023-06-10T00:26:23;94542.31;;;17.00;100.00
6134;BME280;3098;42.678;23.364;2023-06-10T00:28:51;94560.94;;;17.15;100.00
6134;BME280;3098;42.678;23.364;2023-06-10T00:31:18;94554.41;;;17.13;100.00
6134;BME280;3098;42.678;23.364;2023-06-10T00:33:45;94556.84;;;17.21;100.00
6134;BME280;3098;42.678;23.364;2023-06-10T00:36:12;94560.88;;;17.12;100.00
6134;BME280;3098;42.678;23.364;2023-06-10T00:38:40;94492.59;;;16.60;100.00
6134;BME280;3098;42.678;23.364;2023-06-10T00:41:07;94525.13;;;16.82;100.00
6134;BME280;3098;42.678;23.364;2023-06-10T00:43:34;94551.81;;;16.97;100.00
6134;BME280;3098;42.678;23.364;2023-06-10T00:46:01;94525.78;;;16.75;100.00
6134;BME280;3098;42.678;23.364;2023-06-10T00:48:28;94562.97;;;16.99;100.00
6134;BME280;3098;42.678;23.364;2023-06-10T00:50:55;94401.59;;;15.99;100.00
6134;BME280;3098;42.678;23.364;2023-06-10T00:53:22;94565.22;;;17.20;100.00
6134;BME280;3098;42.678;23.364;2023-06-10T00:55:51;94546.66;;;17.08;100.00
6134;BME280;3098;42.678;23.364;2023-06-10T00:58:19;94488.16;;;16.68;100.00
6134;BME280;3098;42.678;23.364;2023-06-10T01:00:46;94564.25;;;17.09;100.00
6134;BME280;3098;42.678;23.364;2023-06-10T01:03:13;94562.97;;;16.99;100.00
6134;BME280;3098;42.678;23.364;2023-06-10T01:05:43;94568.03;;;17.04;100.00
6134;BME280;3098;42.678;23.364;2023-06-10T01:08:16;94574.28;;;17.12;100.00
6134;BME280;3098;42.678;23.364;2023-06-10T01:10:50;94573.69;;;17.22;100.00
6134;BME280;3098;42.678;23.364;2023-06-10T01:13:20;94568.44;;;17.29;100.00
6134;BME280;3098;42.678;23.364;2023-06-10T01:15:49;94574.81;;;17.21;100.00
6134;BME280;3098;42.678;23.364;2023-06-10T01:18:17;94517.16;;;16.85;100.00
6134;BME280;3098;42.678;23.364;2023-06-10T01:20:44;94495.41;;;16.67;100.00
6134;BME280;3098;42.678;23.364;2023-06-10T01:23:13;94535.78;;;17.01;100.00
6134;BME280;3098;42.678;23.364;2023-06-10T01:25:44;94571.06;;;17.25;100.00
6134;BME280;3098;42.678;23.364;2023-06-10T01:28:14;94551.72;;;17.13;100.00
6134;BME280;3098;42.678;23.364;2023-06-10T01:30:47;94573.00;;;17.25;100.00
6134;BME280;3098;42.678;23.364;2023-06-10T01:33:17;94513.16;;;16.76;100.00
6134;BME280;3098;42.678;23.364;2023-06-10T01:35:46;94523.72;;;16.88;100.00
6134;BME280;3098;42.678;23.364;2023-06-10T01:38:15;94501.31;;;16.77;100.00
6134;BME280;3098;42.678;23.364;2023-06-10T01:40:44;94563.38;;;17.24;100.00
6134;BME280;3098;42.678;23.364;2023-06-10T01:43:12;94562.25;;;17.25;100.00
6134;BME280;3098;42.678;23.364;2023-06-10T01:45:39;94559.22;;;17.27;100.00
6134;BME280;3098;42.678;23.364;2023-06-10T01:48:06;94533.25;;;17.08;100.00
6134;BME280;3098;42.678;23.364;2023-06-10T01:50:33;94517.91;;;17.05;100.00
6134;BME280;3098;42.678;23.364;2023-06-10T01:53:00;94551.41;;;17.18;100.00
6134;BME280;3098;42.678;23.364;2023-06-10T01:55:29;94550.94;;;17.12;100.00
6134;BME280;3098;42.678;23.364;2023-06-10T01:57:56;94531.28;;;17.05;100.00
6134;BME280;3098;42.678;23.364;2023-06-10T02:00:22;94552.66;;;17.24;100.00
6134;BME280;3098;42.678;23.364;2023-06-10T02:02:49;94549.34;;;17.31;100.00
6134;BME280;3098;42.678;23.364;2023-06-10T02:05:16;94545.47;;;17.28;100.00
6134;BME280;3098;42.678;23.364;2023-06-10T02:07:43;94552.03;;;17.31;100.00
6134;BME280;3098;42.678;23.364;2023-06-10T02:10:10;94536.22;;;17.25;100.00
6134;BME280;3098;42.678;23.364;2023-06-10T02:12:39;94550.69;;;17.21;100.00
6134;BME280;3098;42.678;23.364;2023-06-10T02:15:05;94547.84;;;17.10;100.00
6134;BME280;3098;42.678;23.364;2023-06-10T02:17:32;94551.00;;;17.16;100.00
6134;BME280;3098;42.678;23.364;2023-06-10T02:19:59;94538.31;;;17.13;100.00
6134;BME280;3098;42.678;23.364;2023-06-10T02:22:31;94507.47;;;17.00;100.00
6134;BME280;3098;42.678;23.364;2023-06-10T02:24:58;94453.91;;;16.77;100.00
6134;BME280;3098;42.678;23.364;2023-06-10T02:27:25;94518.13;;;17.19;100.00
6134;BME280;3098;42.678;23.364;2023-06-10T02:29:54;94529.19;;;17.40;100.00
6134;BME280;3098;42.678;23.364;2023-06-10T02:32:21;94534.25;;;17.45;100.00
6134;BME280;3098;42.678;23.364;2023-06-10T02:34:49;94524.75;;;17.51;100.00
6134;BME280;3098;42.678;23.364;2023-06-10T02:37:17;94530.22;;;17.55;100.00
6134;BME280;3098;42.678;23.364;2023-06-10T02:39:43;94505.75;;;17.37;100.00
6134;BME280;3098;42.678;23.364;2023-06-10T02:42:11;94462.97;;;17.18;100.00
6134;BME280;3098;42.678;23.364;2023-06-10T02:44:38;94520.72;;;17.61;100.00
6134;BME280;3098;42.678;23.364;2023-06-10T02:47:06;94523.88;;;17.66;100.00
6134;BME280;3098;42.678;23.364;2023-06-10T02:49:33;94523.78;;;17.59;100.00
6134;BME280;3098;42.678;23.364;2023-06-10T02:52:01;94513.34;;;17.54;100.00
6134;BME280;3098;42.678;23.364;2023-06-10T02:54:27;94516.31;;;17.49;100.00
6134;BME280;3098;42.678;23.364;2023-06-10T02:56:54;94514.00;;;17.48;100.00
6134;BME280;3098;42.678;23.364;2023-06-10T02:59:21;94500.38;;;17.34;100.00
6134;BME280;3098;42.678;23.364;2023-06-10T03:01:48;94489.28;;;17.35;100.00
6134;BME280;3098;42.678;23.364;2023-06-10T03:04:16;94496.13;;;17.33;100.00
6134;BME280;3098;42.678;23.364;2023-06-10T03:06:44;94504.19;;;17.33;100.00
6134;BME280;3098;42.678;23.364;2023-06-10T03:09:11;94518.56;;;17.47;100.00
6134;BME280;3098;42.678;23.364;2023-06-10T03:11:38;94451.94;;;16.97;100.00
6134;BME280;3098;42.678;23.364;2023-06-10T03:14:05;94521.56;;;17.42;100.00
6134;BME280;3098;42.678;23.364;2023-06-10T03:16:32;94501.28;;;17.18;100.00
6134;BME280;3098;42.678;23.364;2023-06-10T03:18:59;94519.78;;;17.27;100.00
6134;BME280;3098;42.678;23.364;2023-06-10T03:21:27;94513.81;;;17.37;100.00
6134;BME280;3098;42.678;23.364;2023-06-10T03:23:54;94502.69;;;17.35;100.00
6134;BME280;3098;42.678;23.364;2023-06-10T03:26:21;94525.13;;;17.50;100.00
6134;BME280;3098;42.678;23.364;2023-06-10T03:28:48;94518.13;;;17.42;100.00
6134;BME280;3098;42.678;23.364;2023-06-10T03:31:14;94480.19;;;17.17;100.00
6134;BME280;3098;42.678;23.364;2023-06-10T03:33:43;94547.44;;;17.54;100.00
6134;BME280;3098;42.678;23.364;2023-06-10T03:36:09;94546.50;;;17.46;100.00
6134;BME280;3098;42.678;23.364;2023-06-10T03:38:38;94535.69;;;17.16;100.00
6134;BME280;3098;42.678;23.364;2023-06-10T03:41:04;94555.03;;;17.29;100.00
6134;BME280;3098;42.678;23.364;2023-06-10T03:43:31;94532.81;;;17.06;100.00
6134;BME280;3098;42.678;23.364;2023-06-10T03:45:59;94561.09;;;17.03;100.00
6134;BME280;3098;42.678;23.364;2023-06-10T03:48:25;94547.03;;;16.87;100.00
6134;BME280;3098;42.678;23.364;2023-06-10T03:50:53;94554.38;;;16.90;100.00
6134;BME280;3098;42.678;23.364;2023-06-10T03:53:19;94557.06;;;16.90;100.00
6134;BME280;3098;42.678;23.364;2023-06-10T03:55:48;94545.72;;;16.78;100.00
6134;BME280;3098;42.678;23.364;2023-06-10T03:58:15;94543.28;;;16.92;100.00
6134;BME280;3098;42.678;23.364;2023-06-10T04:00:43;94550.84;;;16.86;100.00
6134;BME280;3098;42.678;23.364;2023-06-10T04:03:11;94520.94;;;16.61;100.00
6134;BME280;3098;42.678;23.364;2023-06-10T04:05:40;94535.09;;;16.62;100.00
6134;BME280;3098;42.678;23.364;2023-06-10T04:08:07;94566.84;;;17.02;100.00
6134;BME280;3098;42.678;23.364;2023-06-10T04:10:34;94558.53;;;16.88;100.00
6134;BME280;3098;42.678;23.364;2023-06-10T04:13:03;94561.50;;;16.63;100.00
6134;BME280;3098;42.678;23.364;2023-06-10T04:15:30;94559.69;;;16.67;100.00
6134;BME280;3098;42.678;23.364;2023-06-10T04:17:59;94523.75;;;16.30;100.00
6134;BME280;3098;42.678;23.364;2023-06-10T04:20:26;94540.38;;;16.58;100.00
6134;BME280;3098;42.678;23.364;2023-06-10T04:22:53;94564.19;;;16.83;100.00
6134;BME280;3098;42.678;23.364;2023-06-10T04:25:20;94565.88;;;16.72;100.00
6134;BME280;3098;42.678;23.364;2023-06-10T04:27:47;94520.06;;;16.38;100.00
6134;BME280;3098;42.678;23.364;2023-06-10T04:30:15;94524.59;;;16.53;100.00
6134;BME280;3098;42.678;23.364;2023-06-10T04:32:43;94552.44;;;16.68;100.00
6134;BME280;3098;42.678;23.364;2023-06-10T04:35:11;94545.41;;;16.60;100.00
6134;BME280;3098;42.678;23.364;2023-06-10T04:37:39;94565.38;;;16.85;100.00
6134;BME280;3098;42.678;23.364;2023-06-10T04:40:07;94543.47;;;16.80;100.00
6134;BME280;3098;42.678;23.364;2023-06-10T04:42:35;94560.84;;;17.08;100.00
6134;BME280;3098;42.678;23.364;2023-06-10T04:45:02;94538.13;;;17.25;100.00
6134;BME280;3098;42.678;23.364;2023-06-10T04:47:31;94556.84;;;17.44;100.00
6134;BME280;3098;42.678;23.364;2023-06-10T04:49:59;94554.25;;;17.51;100.00
6134;BME280;3098;42.678;23.364;2023-06-10T04:52:26;94554.88;;;17.41;100.00
6134;BME280;3098;42.678;23.364;2023-06-10T04:54:53;94556.53;;;17.49;100.00
6134;BME280;3098;42.678;23.364;2023-06-10T04:57:20;94543.06;;;17.46;100.00
6134;BME280;3098;42.678;23.364;2023-06-10T04:59:47;94547.66;;;17.68;100.00
6134;BME280;3098;42.678;23.364;2023-06-10T05:02:14;94544.28;;;18.01;100.00
6134;BME280;3098;42.678;23.364;2023-06-10T05:04:42;94545.94;;;18.09;100.00
6134;BME280;3098;42.678;23.364;2023-06-10T05:07:09;94539.31;;;17.99;100.00
6134;BME280;3098;42.678;23.364;2023-06-10T05:09:36;94545.47;;;18.03;100.00
6134;BME280;3098;42.678;23.364;2023-06-10T05:12:04;94509.59;;;18.15;100.00
6134;BME280;3098;42.678;23.364;2023-06-10T05:14:31;94548.44;;;18.54;100.00
6134;BME280;3098;42.678;23.364;2023-06-10T05:16:58;94545.28;;;18.78;100.00
6134;BME280;3098;42.678;23.364;2023-06-10T05:19:25;94535.66;;;18.77;100.00
6134;BME280;3098;42.678;23.364;2023-06-10T05:21:54;94545.16;;;19.05;100.00
6134;BME280;3098;42.678;23.364;2023-06-10T05:24:21;94532.50;;;19.05;100.00
6134;BME280;3098;42.678;23.364;2023-06-10T05:26:48;94535.28;;;19.16;100.00
6134;BME280;3098;42.678;23.364;2023-06-10T05:29:15;94527.91;;;19.06;100.00
6134;BME280;3098;42.678;23.364;2023-06-10T05:31:42;94544.38;;;19.41;100.00
6134;BME280;3098;42.678;23.364;2023-06-10T05:34:09;94541.56;;;19.30;100.00
6134;BME280;3098;42.678;23.364;2023-06-10T05:36:36;94544.06;;;19.49;100.00
6134;BME280;3098;42.678;23.364;2023-06-10T05:39:04;94546.84;;;19.20;100.00
6134;BME280;3098;42.678;23.364;2023-06-10T05:41:31;94541.34;;;19.06;100.00
6134;BME280;3098;42.678;23.364;2023-06-10T05:43:58;94551.34;;;19.09;100.00
6134;BME280;3098;42.678;23.364;2023-06-10T05:46:25;94548.59;;;19.42;100.00
6134;BME280;3098;42.678;23.364;2023-06-10T05:48:52;94543.66;;;19.44;100.00
6134;BME280;3098;42.678;23.364;2023-06-10T05:51:19;94552.72;;;19.76;100.00
6134;BME280;3098;42.678;23.364;2023-06-10T05:53:45;94548.13;;;19.77;100.00
6134;BME280;3098;42.678;23.364;2023-06-10T05:56:14;94555.78;;;19.78;100.00
6134;BME280;3098;42.678;23.364;2023-06-10T05:58:41;94559.38;;;19.89;100.00
6134;BME280;3098;42.678;23.364;2023-06-10T06:01:08;94537.88;;;20.00;100.00
6134;BME280;3098;42.678;23.364;2023-06-10T06:03:34;94548.66;;;20.00;100.00
6134;BME280;3098;42.678;23.364;2023-06-10T06:06:02;94543.72;;;20.09;100.00
6134;BME280;3098;42.678;23.364;2023-06-10T06:08:29;94556.78;;;20.11;100.00
6134;BME280;3098;42.678;23.364;2023-06-10T06:10:56;94553.50;;;20.35;100.00
6134;BME280;3098;42.678;23.364;2023-06-10T06:13:25;94473.03;;;19.61;100.00
6134;BME280;3098;42.678;23.364;2023-06-10T06:15:52;94555.91;;;20.54;100.00
6134;BME280;3098;42.678;23.364;2023-06-10T06:18:18;94550.44;;;20.40;100.00
6134;BME280;3098;42.678;23.364;2023-06-10T06:20:45;94552.91;;;20.77;100.00
6134;BME280;3098;42.678;23.364;2023-06-10T06:23:12;94553.66;;;20.74;100.00
6134;BME280;3098;42.678;23.364;2023-06-10T06:25:39;94548.34;;;21.02;100.00
6134;BME280;3098;42.678;23.364;2023-06-10T06:28:07;94549.88;;;21.06;100.00
6134;BME280;3098;42.678;23.364;2023-06-10T06:30:36;94540.97;;;20.74;100.00
6134;BME280;3098;42.678;23.364;2023-06-10T06:33:03;94555.97;;;20.79;100.00
6134;BME280;3098;42.678;23.364;2023-06-10T06:35:30;94536.19;;;20.39;100.00
6134;BME280;3098;42.678;23.364;2023-06-10T06:37:58;94554.78;;;20.62;100.00
6134;BME280;3098;42.678;23.364;2023-06-10T06:40:25;94553.25;;;20.75;100.00
6134;BME280;3098;42.678;23.364;2023-06-10T06:42:52;94547.50;;;20.77;100.00
6134;BME280;3098;42.678;23.364;2023-06-10T06:45:19;94536.69;;;20.70;100.00
6134;BME280;3098;42.678;23.364;2023-06-10T06:47:47;94516.66;;;20.67;100.00
6134;BME280;3098;42.678;23.364;2023-06-10T06:50:14;94535.56;;;20.74;100.00
6134;BME280;3098;42.678;23.364;2023-06-10T06:52:41;94528.72;;;21.05;100.00
6134;BME280;3098;42.678;23.364;2023-06-10T06:55:08;94529.16;;;21.25;100.00
6134;BME280;3098;42.678;23.364;2023-06-10T06:57:35;94539.94;;;21.32;100.00
6134;BME280;3098;42.678;23.364;2023-06-10T07:00:04;94549.97;;;21.56;100.00
6134;BME280;3098;42.678;23.364;2023-06-10T07:02:31;94512.56;;;21.40;100.00
6134;BME280;3098;42.678;23.364;2023-06-10T07:05:00;94520.28;;;21.49;100.00
6134;BME280;3098;42.678;23.364;2023-06-10T07:07:27;94535.72;;;21.73;100.00
6134;BME280;3098;42.678;23.364;2023-06-10T07:09:54;94529.13;;;22.16;98.24
6134;BME280;3098;42.678;23.364;2023-06-10T07:12:21;94532.97;;;22.15;96.91
6134;BME280;3098;42.678;23.364;2023-06-10T07:14:49;94536.69;;;22.67;93.33
6134;BME280;3098;42.678;23.364;2023-06-10T07:17:16;94535.41;;;22.93;88.99
6134;BME280;3098;42.678;23.364;2023-06-10T07:19:43;94525.13;;;23.32;85.02
6134;BME280;3098;42.678;23.364;2023-06-10T07:22:13;94532.72;;;22.89;84.17
6134;BME280;3098;42.678;23.364;2023-06-10T07:24:40;94522.97;;;22.02;87.29
6134;BME280;3098;42.678;23.364;2023-06-10T07:27:09;94525.16;;;22.53;85.32
6134;BME280;3098;42.678;23.364;2023-06-10T07:29:35;94533.28;;;22.42;86.27
6134;BME280;3098;42.678;23.364;2023-06-10T07:32:03;94531.97;;;22.85;78.88
6134;BME280;3098;42.678;23.364;2023-06-10T07:34:30;94530.94;;;23.27;75.77
6134;BME280;3098;42.678;23.364;2023-06-10T07:36:57;94522.69;;;22.86;76.92
6134;BME280;3098;42.678;23.364;2023-06-10T07:39:25;94516.69;;;23.23;78.51
6134;BME280;3098;42.678;23.364;2023-06-10T07:41:52;94530.16;;;23.30;80.16
6134;BME280;3098;42.678;23.364;2023-06-10T07:44:22;94529.16;;;23.62;77.11
6134;BME280;3098;42.678;23.364;2023-06-10T07:46:50;94512.41;;;23.77;69.10
6134;BME280;3098;42.678;23.364;2023-06-10T07:49:16;94525.28;;;24.07;67.16
6134;BME280;3098;42.678;23.364;2023-06-10T07:51:43;94527.78;;;24.66;66.67
6134;BME280;3098;42.678;23.364;2023-06-10T07:54:10;94466.47;;;25.02;60.19
6134;BME280;3098;42.678;23.364;2023-06-10T07:56:40;94515.22;;;25.36;56.66
6134;BME280;3098;42.678;23.364;2023-06-10T07:59:06;94519.88;;;25.62;53.76
6134;BME280;3098;42.678;23.364;2023-06-10T08:01:34;94521.88;;;27.06;49.65
6134;BME280;3098;42.678;23.364;2023-06-10T08:04:03;94526.69;;;28.31;48.28
6134;BME280;3098;42.678;23.364;2023-06-10T08:06:30;94520.25;;;27.93;44.79
6134;BME280;3098;42.678;23.364;2023-06-10T08:08:57;94500.91;;;28.20;43.04
6134;BME280;3098;42.678;23.364;2023-06-10T08:11:25;94474.31;;;30.04;38.61
6134;BME280;3098;42.678;23.364;2023-06-10T08:13:55;94505.00;;;31.29;36.97
6134;BME280;3098;42.678;23.364;2023-06-10T08:16:22;94521.31;;;31.63;35.52
6134;BME280;3098;42.678;23.364;2023-06-10T08:18:48;94511.56;;;31.31;34.46
6134;BME280;3098;42.678;23.364;2023-06-10T08:21:16;94515.25;;;32.81;33.38
6134;BME280;3098;42.678;23.364;2023-06-10T08:23:43;94477.56;;;30.11;35.87
6134;BME280;3098;42.678;23.364;2023-06-10T08:26:11;94464.16;;;29.92;37.75
6134;BME280;3098;42.678;23.364;2023-06-10T08:28:37;94477.81;;;30.60;35.65
6134;BME280;3098;42.678;23.364;2023-06-10T08:31:06;94489.44;;;30.30;36.60
6134;BME280;3098;42.678;23.364;2023-06-10T08:33:33;94485.69;;;30.80;36.51
6134;BME280;3098;42.678;23.364;2023-06-10T08:36:00;94475.09;;;28.37;38.69
6134;BME280;3098;42.678;23.364;2023-06-10T08:38:26;94499.41;;;27.54;40.16
6134;BME280;3098;42.678;23.364;2023-06-10T08:40:56;94492.59;;;27.62;40.81
6134;BME280;3098;42.678;23.364;2023-06-10T08:43:30;94492.03;;;28.16;40.42
6134;BME280;3098;42.678;23.364;2023-06-10T08:46:00;94489.44;;;30.30;38.47
6134;BME280;3098;42.678;23.364;2023-06-10T08:48:30;94490.59;;;30.85;35.58
6134;BME280;3098;42.678;23.364;2023-06-10T08:50:59;94437.22;;;29.69;38.59
6134;BME280;3098;42.678;23.364;2023-06-10T08:53:29;94377.06;;;30.25;37.61
6134;BME280;3098;42.678;23.364;2023-06-10T08:56:00;94485.91;;;30.64;36.21
6134;BME280;3098;42.678;23.364;2023-06-10T08:58:28;94481.31;;;30.61;35.62
6134;BME280;3098;42.678;23.364;2023-06-10T09:00:55;94477.84;;;32.83;31.96
6134;BME280;3098;42.678;23.364;2023-06-10T09:03:23;94466.66;;;34.27;30.20
6134;BME280;3098;42.678;23.364;2023-06-10T09:05:52;94434.19;;;34.31;30.23
6134;BME280;3098;42.678;23.364;2023-06-10T09:08:20;94474.63;;;34.63;29.73
6134;BME280;3098;42.678;23.364;2023-06-10T09:10:48;94473.75;;;31.17;33.31
6134;BME280;3098;42.678;23.364;2023-06-10T09:13:15;94469.97;;;31.55;33.39
6134;BME280;3098;42.678;23.364;2023-06-10T09:15:44;94465.16;;;31.37;33.91
6134;BME280;3098;42.678;23.364;2023-06-10T09:18:11;94467.06;;;28.87;37.53
6134;BME280;3098;42.678;23.364;2023-06-10T09:20:39;94462.94;;;28.25;38.42
6134;BME280;3098;42.678;23.364;2023-06-10T09:23:07;94464.50;;;28.68;38.23
6134;BME280;3098;42.678;23.364;2023-06-10T09:25:36;94457.69;;;29.39;37.57
6134;BME280;3098;42.678;23.364;2023-06-10T09:28:03;94460.34;;;30.89;35.10
6134;BME280;3098;42.678;23.364;2023-06-10T09:30:33;94443.50;;;31.79;33.40
6134;BME280;3098;42.678;23.364;2023-06-10T09:33:01;94458.41;;;32.96;32.16
6134;BME280;3098;42.678;23.364;2023-06-10T09:35:30;94462.34;;;31.50;35.32
6134;BME280;3098;42.678;23.364;2023-06-10T09:37:58;94432.50;;;27.98;38.89
6134;BME280;3098;42.678;23.364;2023-06-10T09:40:27;94457.59;;;27.45;41.61
6134;BME280;3098;42.678;23.364;2023-06-10T09:42:55;94452.50;;;30.13;37.40
6134;BME280;3098;42.678;23.364;2023-06-10T09:45:23;94448.47;;;31.13;34.97
6134;BME280;3098;42.678;23.364;2023-06-10T09:47:53;94448.03;;;31.55;34.11
6134;BME280;3098;42.678;23.364;2023-06-10T09:50:21;94442.94;;;32.11;33.55
6134;BME280;3098;42.678;23.364;2023-06-10T09:52:48;94437.28;;;31.29;34.32
6134;BME280;3098;42.678;23.364;2023-06-10T09:55:15;94450.25;;;32.41;33.06
6134;BME280;3098;42.678;23.364;2023-06-10T09:57:44;94408.63;;;33.12;33.08
6134;BME280;3098;42.678;23.364;2023-06-10T10:00:16;94419.84;;;31.54;33.77
6134;BME280;3098;42.678;23.364;2023-06-10T10:02:48;94423.03;;;29.95;36.03
6134;BME280;3098;42.678;23.364;2023-06-10T10:05:15;94436.97;;;28.62;38.04
6134;BME280;3098;42.678;23.364;2023-06-10T10:07:42;94410.69;;;28.68;37.04
6134;BME280;3098;42.678;23.364;2023-06-10T10:10:11;94424.91;;;28.88;37.11
6134;BME280;3098;42.678;23.364;2023-06-10T10:12:38;94408.09;;;29.87;36.31
6134;BME280;3098;42.678;23.364;2023-06-10T10:15:09;94419.44;;;29.01;37.63
6134;BME280;3098;42.678;23.364;2023-06-10T10:17:40;94416.25;;;29.53;36.37
6134;BME280;3098;42.678;23.364;2023-06-10T10:20:11;94376.53;;;31.22;32.92
6134;BME280;3098;42.678;23.364;2023-06-10T10:22:40;94410.78;;;32.03;32.89
6134;BME280;3098;42.678;23.364;2023-06-10T10:25:10;94415.31;;;30.15;35.44
6134;BME280;3098;42.678;23.364;2023-06-10T10:27:44;94407.44;;;29.36;38.05
6134;BME280;3098;42.678;23.364;2023-06-10T10:30:14;94387.97;;;29.22;38.76
6134;BME280;3098;42.678;23.364;2023-06-10T10:32:46;94395.38;;;30.89;35.89
6134;BME280;3098;42.678;23.364;2023-06-10T10:35:21;94401.75;;;30.86;35.91
6134;BME280;3098;42.678;23.364;2023-06-10T10:37:49;94366.06;;;29.00;37.13
6134;BME280;3098;42.678;23.364;2023-06-10T10:40:16;94411.38;;;32.16;33.21
6134;BME280;3098;42.678;23.364;2023-06-10T10:42:44;94404.50;;;31.66;32.71
6134;BME280;3098;42.678;23.364;2023-06-10T10:45:12;94378.09;;;28.36;37.32
6134;BME280;3098;42.678;23.364;2023-06-10T10:47:40;94405.78;;;29.14;37.08
6134;BME280;3098;42.678;23.364;2023-06-10T10:50:15;94373.38;;;28.90;37.58
6134;BME280;3098;42.678;23.364;2023-06-10T10:52:53;94388.66;;;29.00;36.83
6134;BME280;3098;42.678;23.364;2023-06-10T10:55:21;94356.50;;;28.00;37.77
6134;BME280;3098;42.678;23.364;2023-06-10T10:57:55;94394.16;;;26.60;40.38
6134;BME280;3098;42.678;23.364;2023-06-10T11:00:31;94384.75;;;26.28;42.48
6134;BME280;3098;42.678;23.364;2023-06-10T11:02:59;94338.72;;;27.06;40.11
6134;BME280;3098;42.678;23.364;2023-06-10T11:05:37;94384.56;;;27.84;40.53
6134;BME280;3098;42.678;23.364;2023-06-10T11:08:05;94357.84;;;27.79;39.65
6134;BME280;3098;42.678;23.364;2023-06-10T11:10:34;94376.94;;;28.62;39.65
6134;BME280;3098;42.678;23.364;2023-06-10T11:13:06;94310.28;;;28.76;37.67
6134;BME280;3098;42.678;23.364;2023-06-10T11:15:39;94360.09;;;27.68;39.41
6134;BME280;3098;42.678;23.364;2023-06-10T11:18:14;94357.25;;;27.11;40.15
6134;BME280;3098;42.678;23.364;2023-06-10T11:21:00;94350.84;;;28.48;37.34
6134;BME280;3098;42.678;23.364;2023-06-10T11:23:33;94354.69;;;28.76;37.58
6134;BME280;3098;42.678;23.364;2023-06-10T11:26:10;94300.59;;;26.57;41.17
6134;BME280;3098;42.678;23.364;2023-06-10T11:28:38;94342.47;;;25.45;44.76
6134;BME280;3098;42.678;23.364;2023-06-10T11:31:08;94289.13;;;25.94;43.06
6134;BME280;3098;42.678;23.364;2023-06-10T11:33:38;94348.50;;;26.51;42.96
6134;BME280;3098;42.678;23.364;2023-06-10T11:36:06;94343.00;;;26.19;44.37
6134;BME280;3098;42.678;23.364;2023-06-10T11:38:33;94341.94;;;26.33;44.37
6134;BME280;3098;42.678;23.364;2023-06-10T11:41:01;94323.84;;;26.94;42.51
6134;BME280;3098;42.678;23.364;2023-06-10T11:43:30;94322.84;;;26.36;42.42
6134;BME280;3098;42.678;23.364;2023-06-10T11:45:56;94284.47;;;25.95;43.03
6134;BME280;3098;42.678;23.364;2023-06-10T11:48:25;94336.53;;;25.74;42.81
6134;BME280;3098;42.678;23.364;2023-06-10T11:50:53;94288.53;;;25.24;42.64
6134;BME280;3098;42.678;23.364;2023-06-10T11:53:21;94334.09;;;25.79;42.52
6134;BME280;3098;42.678;23.364;2023-06-10T11:55:50;94292.56;;;26.34;40.88
6134;BME280;3098;42.678;23.364;2023-06-10T11:58:18;94291.44;;;26.67;40.67
6134;BME280;3098;42.678;23.364;2023-06-10T12:00:46;94327.69;;;27.58;39.14
6134;BME280;3098;42.678;23.364;2023-06-10T12:03:14;94333.50;;;28.01;39.27
6134;BME280;3098;42.678;23.364;2023-06-10T12:05:56;94307.88;;;28.65;35.39
6134;BME280;3098;42.678;23.364;2023-06-10T12:08:24;94295.00;;;28.66;35.01
6134;BME280;3098;42.678;23.364;2023-06-10T12:10:51;94299.78;;;28.49;35.43
6134;BME280;3098;42.678;23.364;2023-06-10T12:13:19;94309.56;;;28.21;35.52
6134;BME280;3098;42.678;23.364;2023-06-10T12:15:46;94321.00;;;27.75;35.68
6134;BME280;3098;42.678;23.364;2023-06-10T12:18:16;94277.97;;;26.60;36.29
6134;BME280;3098;42.678;23.364;2023-06-10T12:20:45;94289.38;;;26.55;36.80
6134;BME280;3098;42.678;23.364;2023-06-10T12:23:13;94314.50;;;27.40;35.97
6134;BME280;3098;42.678;23.364;2023-06-10T12:25:49;94316.41;;;27.27;36.72
6134;BME280;3098;42.678;23.364;2023-06-10T12:28:21;94310.16;;;28.00;35.87
6134;BME280;3098;42.678;23.364;2023-06-10T12:30:48;94298.53;;;27.71;36.49
6134;BME280;3098;42.678;23.364;2023-06-10T12:33:18;94302.81;;;28.38;35.43
6134;BME280;3098;42.678;23.364;2023-06-10T12:35:51;94307.53;;;27.84;35.69
6134;BME280;3098;42.678;23.364;2023-06-10T12:38:21;94309.03;;;27.56;35.90
6134;BME280;3098;42.678;23.364;2023-06-10T12:40:50;94303.03;;;28.31;34.38
6134;BME280;3098;42.678;23.364;2023-06-10T12:43:19;94298.56;;;28.88;34.39
6134;BME280;3098;42.678;23.364;2023-06-10T12:45:46;94300.13;;;28.76;33.04
6134;BME280;3098;42.678;23.364;2023-06-10T12:48:18;94255.63;;;29.01;32.41
6134;BME280;3098;42.678;23.364;2023-06-10T12:50:52;94282.41;;;28.81;33.51
6134;BME280;3098;42.678;23.364;2023-06-10T12:53:20;94294.41;;;28.33;34.53
6134;BME280;3098;42.678;23.364;2023-06-10T12:55:48;94279.69;;;28.43;33.43
6134;BME280;3098;42.678;23.364;2023-06-10T12:58:15;94292.16;;;28.69;33.42
6134;BME280;3098;42.678;23.364;2023-06-10T13:00:42;94237.66;;;28.03;33.73
6134;BME280;3098;42.678;23.364;2023-06-10T13:03:09;94264.50;;;26.89;35.19
6134;BME280;3098;42.678;23.364;2023-06-10T13:05:37;94217.03;;;26.58;35.65
6134;BME280;3098;42.678;23.364;2023-06-10T13:08:06;94283.69;;;26.98;36.17
6134;BME280;3098;42.678;23.364;2023-06-10T13:10:35;94297.53;;;26.71;36.25